Time;durP1;ratioP1;P1;durP2;ratioP2;P2;SDS_P1;SDS_P2;PMS_P1;PMS_P2;Temp;Humidity;BMP_temperature;BMP_pressure;BME280_temperature;BME280_humidity;BME280_pressure;Samples;Min_cycle;Max_cycle;Signal;HPM_P1;HPM_P2
2023/04/07 00:00:04;;;;;;;14.10;10.37;;;;;;;;;;5018201;28;20233;-71
2023/04/07 00:02:32;;;;;;;9.33;7.73;;;;;;;;;;5023265;28;20335;-70
2023/04/07 00:04:59;;;;;;;16.87;10.30;;;;;;;;;;5023957;28;20247;-71
2023/04/07 00:07:26;;;;;;;8.57;7.73;;;;;;;;;;5023988;28;20220;-71
2023/04/07 00:09:53;;;;;;;9.40;8.30;;;;;;;;;;5021504;28;20205;-72
2023/04/07 00:12:22;;;;;;;10.50;9.40;;;;;;;;;;5020712;28;20208;-71
2023/04/07 00:14:49;;;;;;;14.27;11.80;;;;;;;;;;5023539;28;20208;-71
2023/04/07 00:17:16;;;;;;;11.83;10.63;;;;;;;;;;5025606;28;20268;-71
2023/04/07 00:19:43;;;;;;;11.30;9.17;;;;;;;;;;5020598;28;20228;-70
2023/04/07 00:22:10;;;;;;;9.53;8.63;;;;;;;;;;5024249;28;20220;-70
2023/04/07 00:24:37;;;;;;;10.00;9.10;;;;;;;;;;5017119;28;20208;-71
2023/04/07 00:27:05;;;;;;;10.60;9.60;;;;;;;;;;5023428;28;20207;-69
2023/04/07 00:29:33;;;;;;;12.60;11.30;;;;;;;;;;5016916;28;20216;-71
2023/04/07 00:32:00;;;;;;;10.50;9.47;;;;;;;;;;5019655;28;20240;-71
2023/04/07 00:34:27;;;;;;;9.10;8.30;;;;;;;;;;5021217;28;20236;-71
2023/04/07 00:36:55;;;;;;;15.67;11.70;;;;;;;;;;5021637;28;20207;-70
2023/04/07 00:39:22;;;;;;;11.30;10.20;;;;;;;;;;5025379;28;20231;-70
2023/04/07 00:41:50;;;;;;;13.00;11.60;;;;;;;;;;5020089;28;20227;-70
2023/04/07 00:44:17;;;;;;;9.90;8.90;;;;;;;;;;5021663;28;20208;-71
2023/04/07 00:46:48;;;;;;;17.50;12.47;;;;;;;;;;5021582;28;20204;-70
2023/04/07 00:49:16;;;;;;;14.30;12.70;;;;;;;;;;5020113;28;20208;-69
2023/04/07 00:51:43;;;;;;;14.97;12.67;;;;;;;;;;5021405;28;20208;-69
2023/04/07 00:54:11;;;;;;;13.90;12.47;;;;;;;;;;5019817;28;20201;-70
2023/04/07 00:56:38;;;;;;;12.73;11.30;;;;;;;;;;5019870;28;20211;-70
2023/04/07 00:59:05;;;;;;;14.47;12.17;;;;;;;;;;5018127;28;20215;-70
2023/04/07 01:01:36;;;;;;;14.03;12.57;;;;;;;;;;5019439;28;20215;-63
2023/04/07 01:04:08;;;;;;;12.90;11.60;;;;;;;;;;5018034;28;20308;-63
2023/04/07 01:06:37;;;;;;;12.47;11.23;;;;;;;;;;5020241;28;20312;-63
2023/04/07 01:09:05;;;;;;;12.30;11.00;;;;;;;;;;5021775;28;20215;-63
2023/04/07 01:11:35;;;;;;;17.63;13.33;;;;;;;;;;5020992;28;20222;-63
2023/04/07 01:14:03;;;;;;;14.20;12.70;;;;;;;;;;5012221;28;20216;-63
2023/04/07 01:16:32;;;;;;;15.67;12.47;;;;;;;;;;5013123;28;20204;-63
2023/04/07 01:19:02;;;;;;;13.40;11.17;;;;;;;;;;5022000;28;20216;-63
2023/04/07 01:21:34;;;;;;;17.50;12.63;;;;;;;;;;5022237;28;20208;-63
2023/04/07 01:24:13;;;;;;;15.10;12.63;;;;;;;;;;5018342;28;20212;-63
2023/04/07 01:26:41;;;;;;;15.27;12.87;;;;;;;;;;5019895;28;20208;-63
2023/04/07 01:29:16;;;;;;;16.87;13.67;;;;;;;;;;5019042;28;20240;-63
2023/04/07 01:31:46;;;;;;;14.70;12.80;;;;;;;;;;5013584;28;20234;-63
2023/04/07 01:34:14;;;;;;;15.10;13.17;;;;;;;;;;5017820;28;20219;-63
2023/04/07 01:36:41;;;;;;;17.27;13.20;;;;;;;;;;5016571;28;20209;-62
2023/04/07 01:39:10;;;;;;;14.30;12.83;;;;;;;;;;5019961;28;20211;-63
2023/04/07 01:41:38;;;;;;;16.77;13.40;;;;;;;;;;5011531;28;20237;-63
2023/04/07 01:44:07;;;;;;;15.60;12.83;;;;;;;;;;5011821;28;20197;-63
2023/04/07 01:46:34;;;;;;;15.43;12.83;;;;;;;;;;5025461;28;20208;-63
2023/04/07 01:49:03;;;;;;;19.03;12.70;;;;;;;;;;5021772;28;20237;-63
2023/04/07 01:51:31;;;;;;;15.10;12.77;;;;;;;;;;5017143;28;20205;-63
2023/04/07 01:53:59;;;;;;;14.00;12.53;;;;;;;;;;5023159;28;20211;-63
2023/04/07 01:56:26;;;;;;;14.40;12.97;;;;;;;;;;5016701;28;20262;-63
2023/04/07 01:58:54;;;;;;;13.77;11.50;;;;;;;;;;5017919;28;20211;-63
2023/04/07 02:01:21;;;;;;;14.30;12.67;;;;;;;;;;5022426;28;20250;-63
2023/04/07 02:03:51;;;;;;;15.00;13.27;;;;;;;;;;5024198;28;20220;-63
2023/04/07 02:06:20;;;;;;;17.00;14.00;;;;;;;;;;5025976;28;20216;-63
2023/04/07 02:08:50;;;;;;;15.57;13.97;;;;;;;;;;5020571;28;20259;-63
2023/04/07 02:11:19;;;;;;;16.03;12.77;;;;;;;;;;5027322;28;20196;-63
2023/04/07 02:13:46;;;;;;;18.53;14.13;;;;;;;;;;5024732;28;20203;-63
2023/04/07 02:16:14;;;;;;;16.97;13.67;;;;;;;;;;5019667;28;20212;-63
2023/04/07 02:18:42;;;;;;;12.93;11.70;;;;;;;;;;5027498;28;20204;-63
2023/04/07 02:21:10;;;;;;;17.33;13.60;;;;;;;;;;5018991;28;20263;-63
2023/04/07 02:23:38;;;;;;;14.20;12.70;;;;;;;;;;5031840;28;20215;-63
2023/04/07 02:26:06;;;;;;;17.87;13.67;;;;;;;;;;5026627;28;20212;-64
2023/04/07 02:28:33;;;;;;;14.80;13.20;;;;;;;;;;5023289;28;20295;-63
2023/04/07 02:31:00;;;;;;;15.90;14.30;;;;;;;;;;5030087;28;20204;-63
2023/04/07 02:33:27;;;;;;;18.40;14.53;;;;;;;;;;5026257;28;20272;-63
2023/04/07 02:35:54;;;;;;;18.43;14.37;;;;;;;;;;5024806;28;20220;-63
2023/04/07 02:38:21;;;;;;;19.17;13.27;;;;;;;;;;5028500;28;20218;-63
2023/04/07 02:40:50;;;;;;;15.10;13.60;;;;;;;;;;5022527;28;20235;-63
2023/04/07 02:43:18;;;;;;;20.80;14.87;;;;;;;;;;5026316;28;20224;-63
2023/04/07 02:45:45;;;;;;;16.97;14.57;;;;;;;;;;5031377;28;20205;-63
2023/04/07 02:48:12;;;;;;;19.87;14.53;;;;;;;;;;5028509;28;20211;-63
2023/04/07 02:50:40;;;;;;;19.03;14.87;;;;;;;;;;5028720;28;20208;-64
2023/04/07 02:53:07;;;;;;;17.30;14.03;;;;;;;;;;5024459;28;20208;-63
2023/04/07 02:55:35;;;;;;;21.10;15.17;;;;;;;;;;5022580;28;20303;-63
2023/04/07 02:58:03;;;;;;;16.47;14.37;;;;;;;;;;5029106;28;20226;-63
2023/04/07 03:00:30;;;;;;;15.33;13.73;;;;;;;;;;5028616;28;20224;-63
2023/04/07 03:02:57;;;;;;;18.13;15.60;;;;;;;;;;5029920;28;20214;-63
2023/04/07 03:05:24;;;;;;;21.63;15.27;;;;;;;;;;5025108;28;20295;-62
2023/04/07 03:07:52;;;;;;;21.50;14.10;;;;;;;;;;5025425;28;20216;-62
2023/04/07 03:10:19;;;;;;;20.40;14.70;;;;;;;;;;5023168;28;20212;-62
2023/04/07 03:12:46;;;;;;;15.03;13.10;;;;;;;;;;5015167;28;20213;-62
2023/04/07 03:15:15;;;;;;;14.47;12.90;;;;;;;;;;5022311;28;20216;-62
2023/04/07 03:17:42;;;;;;;16.60;13.50;;;;;;;;;;5014026;28;20224;-63
2023/04/07 03:20:09;;;;;;;15.83;12.93;;;;;;;;;;5013861;28;20243;-63
2023/04/07 03:22:36;;;;;;;16.83;13.67;;;;;;;;;;5017500;28;20216;-62
2023/04/07 03:25:04;;;;;;;17.03;13.50;;;;;;;;;;5025620;28;20215;-62
2023/04/07 03:27:31;;;;;;;16.90;13.03;;;;;;;;;;5026195;28;20240;-62
2023/04/07 03:29:58;;;;;;;15.77;13.83;;;;;;;;;;5022062;28;20229;-63
2023/04/07 03:32:27;;;;;;;12.87;11.10;;;;;;;;;;5027320;28;20215;-62
2023/04/07 03:34:54;;;;;;;16.23;13.07;;;;;;;;;;5021953;28;20209;-62
2023/04/07 03:37:21;;;;;;;15.07;12.30;;;;;;;;;;5028972;28;20338;-62
2023/04/07 03:39:48;;;;;;;15.17;12.60;;;;;;;;;;5021228;28;20212;-62
2023/04/07 03:42:15;;;;;;;12.37;11.07;;;;;;;;;;5023206;28;20208;-62
2023/04/07 03:44:42;;;;;;;15.30;12.30;;;;;;;;;;5017757;28;20251;-62
2023/04/07 03:47:10;;;;;;;11.27;9.87;;;;;;;;;;5018200;28;20212;-62
2023/04/07 03:49:38;;;;;;;15.73;12.67;;;;;;;;;;5021732;28;20219;-62
2023/04/07 03:52:05;;;;;;;17.97;14.43;;;;;;;;;;5017549;28;20208;-62
2023/04/07 03:54:34;;;;;;;18.30;13.40;;;;;;;;;;5022668;28;20208;-62
2023/04/07 03:57:01;;;;;;;13.00;10.00;;;;;;;;;;5020750;28;20215;-63
2023/04/07 03:59:28;;;;;;;14.67;11.83;;;;;;;;;;5022975;28;20219;-62
2023/04/07 04:01:55;;;;;;;16.53;13.40;;;;;;;;;;5021871;28;20224;-62
2023/04/07 04:04:23;;;;;;;11.20;9.90;;;;;;;;;;5016850;28;20220;-62
2023/04/07 04:06:51;;;;;;;11.47;10.07;;;;;;;;;;5020090;28;20266;-62
2023/04/07 04:09:19;;;;;;;12.67;10.67;;;;;;;;;;5026217;28;20213;-62
2023/04/07 04:11:46;;;;;;;10.73;9.63;;;;;;;;;;5017233;28;20204;-62
2023/04/07 04:14:14;;;;;;;11.37;10.03;;;;;;;;;;5027477;28;20216;-62
2023/04/07 04:16:41;;;;;;;10.13;9.13;;;;;;;;;;5021078;28;20211;-62
2023/04/07 04:19:08;;;;;;;9.20;7.57;;;;;;;;;;5023218;28;20221;-62
2023/04/07 04:21:36;;;;;;;8.93;8.03;;;;;;;;;;5013090;28;20320;-62
2023/04/07 04:24:04;;;;;;;8.37;7.30;;;;;;;;;;5017287;28;20219;-62
2023/04/07 04:26:31;;;;;;;10.30;9.10;;;;;;;;;;5020931;28;20204;-63
2023/04/07 04:28:58;;;;;;;9.90;7.50;;;;;;;;;;5021168;28;20244;-62
2023/04/07 04:31:26;;;;;;;9.67;6.90;;;;;;;;;;5024502;28;20201;-62
2023/04/07 04:33:53;;;;;;;11.57;7.87;;;;;;;;;;5020953;28;20216;-62
2023/04/07 04:36:20;;;;;;;7.00;6.27;;;;;;;;;;5016418;28;20211;-62
2023/04/07 04:38:47;;;;;;;7.03;6.17;;;;;;;;;;5014098;28;20247;-62
2023/04/07 04:41:15;;;;;;;7.97;6.90;;;;;;;;;;5018262;28;20227;-62
2023/04/07 04:43:43;;;;;;;9.60;6.80;;;;;;;;;;5022821;28;20215;-63
2023/04/07 04:46:10;;;;;;;7.70;7.00;;;;;;;;;;5023223;28;20219;-62
2023/04/07 04:48:37;;;;;;;6.77;6.00;;;;;;;;;;5017823;28;20216;-62
2023/04/07 04:51:04;;;;;;;7.73;6.77;;;;;;;;;;5020329;28;20207;-62
2023/04/07 04:53:31;;;;;;;8.07;6.43;;;;;;;;;;5021763;28;20212;-63
2023/04/07 04:55:58;;;;;;;7.60;6.47;;;;;;;;;;5024487;28;20223;-62
2023/04/07 04:58:27;;;;;;;7.30;6.60;;;;;;;;;;5021378;28;20209;-62
2023/04/07 05:00:56;;;;;;;8.87;6.73;;;;;;;;;;5020089;28;20233;-61
2023/04/07 05:03:24;;;;;;;7.00;6.33;;;;;;;;;;5019850;28;20279;-61
2023/04/07 05:05:52;;;;;;;9.87;7.37;;;;;;;;;;5017926;28;20223;-61
2023/04/07 05:08:19;;;;;;;10.17;8.47;;;;;;;;;;5020113;28;20201;-61
2023/04/07 05:10:47;;;;;;;9.37;8.47;;;;;;;;;;5015956;28;20204;-61
2023/04/07 05:13:14;;;;;;;9.77;8.87;;;;;;;;;;5022715;28;20212;-61
2023/04/07 05:15:42;;;;;;;11.93;9.70;;;;;;;;;;5019381;28;20327;-61
2023/04/07 05:18:10;;;;;;;11.80;10.33;;;;;;;;;;5021750;28;20208;-63
2023/04/07 05:20:37;;;;;;;12.20;11.00;;;;;;;;;;5019788;28;20236;-61
2023/04/07 05:23:04;;;;;;;9.23;7.93;;;;;;;;;;5025611;28;20207;-61
2023/04/07 05:25:31;;;;;;;7.47;6.77;;;;;;;;;;5016196;28;20255;-61
2023/04/07 05:27:58;;;;;;;9.07;7.67;;;;;;;;;;5022459;28;20243;-61
2023/04/07 05:30:25;;;;;;;7.57;6.77;;;;;;;;;;5023181;28;20204;-62
2023/04/07 05:32:54;;;;;;;8.20;7.40;;;;;;;;;;5024620;28;20200;-61
2023/04/07 05:35:21;;;;;;;8.33;7.50;;;;;;;;;;5018788;28;20263;-61
2023/04/07 05:37:48;;;;;;;8.20;7.40;;;;;;;;;;5022614;28;20208;-62
2023/04/07 05:40:15;;;;;;;7.87;7.07;;;;;;;;;;5024466;28;20220;-62
2023/04/07 05:42:43;;;;;;;8.73;7.93;;;;;;;;;;5023574;28;20204;-62
2023/04/07 05:45:11;;;;;;;12.73;10.50;;;;;;;;;;5015752;28;20201;-61
2023/04/07 05:47:38;;;;;;;10.40;9.40;;;;;;;;;;5017685;28;20208;-62
2023/04/07 05:50:07;;;;;;;8.00;7.20;;;;;;;;;;5020557;28;20224;-61
2023/04/07 05:52:34;;;;;;;8.70;7.80;;;;;;;;;;5025197;28;20200;-61
2023/04/07 05:55:01;;;;;;;10.20;9.20;;;;;;;;;;5023133;28;20208;-61
2023/04/07 05:57:28;;;;;;;8.53;7.63;;;;;;;;;;5021886;28;20208;-61
2023/04/07 05:59:55;;;;;;;8.40;7.53;;;;;;;;;;5011403;28;20217;-61
2023/04/07 06:02:22;;;;;;;10.33;9.33;;;;;;;;;;5011496;28;20244;-61
2023/04/07 06:04:49;;;;;;;12.27;10.27;;;;;;;;;;5019390;28;20214;-61
2023/04/07 06:07:18;;;;;;;10.03;8.40;;;;;;;;;;5018297;28;20208;-62
2023/04/07 06:09:45;;;;;;;13.67;11.47;;;;;;;;;;5016737;28;20223;-61
2023/04/07 06:12:12;;;;;;;12.17;11.00;;;;;;;;;;5021968;28;20200;-61
2023/04/07 06:14:39;;;;;;;10.47;9.30;;;;;;;;;;5016240;28;20216;-61
2023/04/07 06:17:06;;;;;;;11.87;10.60;;;;;;;;;;5023559;28;20213;-61
2023/04/07 06:19:33;;;;;;;13.30;11.80;;;;;;;;;;5014999;28;20220;-61
2023/04/07 06:22:01;;;;;;;10.97;9.87;;;;;;;;;;5025549;28;20240;-61
2023/04/07 06:24:29;;;;;;;12.00;10.70;;;;;;;;;;5014657;28;20216;-61
2023/04/07 06:26:57;;;;;;;11.83;10.60;;;;;;;;;;5019370;28;20205;-61
2023/04/07 06:29:25;;;;;;;10.87;9.77;;;;;;;;;;5025252;28;20262;-61
2023/04/07 06:31:53;;;;;;;9.70;8.90;;;;;;;;;;5020099;28;20295;-61
2023/04/07 06:34:20;;;;;;;9.93;8.93;;;;;;;;;;5011488;28;20216;-61
2023/04/07 06:36:47;;;;;;;10.30;9.30;;;;;;;;;;5011544;28;20311;-61
2023/04/07 06:39:14;;;;;;;11.07;8.80;;;;;;;;;;5020070;28;20209;-62
2023/04/07 06:41:43;;;;;;;12.27;9.83;;;;;;;;;;5022498;28;20229;-61
2023/04/07 06:44:10;;;;;;;11.30;9.53;;;;;;;;;;5021554;28;20208;-61
2023/04/07 06:46:38;;;;;;;10.83;8.93;;;;;;;;;;5021923;28;20262;-61
2023/04/07 06:49:05;;;;;;;11.03;9.37;;;;;;;;;;5020434;28;20216;-62
2023/04/07 06:51:32;;;;;;;10.83;9.57;;;;;;;;;;5019898;28;20201;-61
2023/04/07 06:53:59;;;;;;;11.30;9.63;;;;;;;;;;5026122;28;20200;-61
2023/04/07 06:56:26;;;;;;;9.47;8.57;;;;;;;;;;5022351;28;20216;-61
2023/04/07 06:58:55;;;;;;;9.60;8.57;;;;;;;;;;5016018;28;20227;-61
2023/04/07 07:01:22;;;;;;;12.17;10.80;;;;;;;;;;5024120;28;20244;-61
2023/04/07 07:03:49;;;;;;;9.20;7.70;;;;;;;;;;5023927;28;20219;-61
2023/04/07 07:06:17;;;;;;;12.87;10.13;;;;;;;;;;5031835;28;20216;-61
2023/04/07 07:08:44;;;;;;;10.77;9.57;;;;;;;;;;5024235;28;20215;-61
2023/04/07 07:11:11;;;;;;;9.77;8.57;;;;;;;;;;5024671;28;20212;-61
2023/04/07 07:13:38;;;;;;;11.43;9.00;;;;;;;;;;5024270;28;20205;-61
2023/04/07 07:16:07;;;;;;;10.63;8.60;;;;;;;;;;5014323;28;20215;-61
2023/04/07 07:18:35;;;;;;;10.23;8.30;;;;;;;;;;5017316;28;20213;-61
2023/04/07 07:21:02;;;;;;;13.20;8.43;;;;;;;;;;5022015;28;20267;-61
2023/04/07 07:23:29;;;;;;;14.77;9.07;;;;;;;;;;5017888;28;20213;-61
2023/04/07 07:25:56;;;;;;;11.03;7.70;;;;;;;;;;5024266;28;20219;-61
2023/04/07 07:28:23;;;;;;;10.37;7.80;;;;;;;;;;5018271;28;20243;-61
2023/04/07 07:30:51;;;;;;;10.83;8.10;;;;;;;;;;5019029;28;20213;-61
2023/04/07 07:33:21;;;;;;;11.40;7.40;;;;;;;;;;5018619;28;20201;-61
2023/04/07 07:35:48;;;;;;;8.67;7.20;;;;;;;;;;5020855;28;20266;-61
2023/04/07 07:38:15;;;;;;;11.47;7.90;;;;;;;;;;5029041;28;20207;-61
2023/04/07 07:40:42;;;;;;;9.47;7.07;;;;;;;;;;5018963;28;20216;-61
2023/04/07 07:43:10;;;;;;;7.40;6.57;;;;;;;;;;5024606;28;20228;-61
2023/04/07 07:45:37;;;;;;;9.63;6.93;;;;;;;;;;5024102;28;20212;-61
2023/04/07 07:48:04;;;;;;;8.80;7.53;;;;;;;;;;5016996;28;20272;-61
2023/04/07 07:50:32;;;;;;;9.63;6.90;;;;;;;;;;5025362;28;20208;-61
2023/04/07 07:53:00;;;;;;;8.23;6.60;;;;;;;;;;5020593;28;20209;-61
2023/04/07 07:55:27;;;;;;;8.23;6.63;;;;;;;;;;5020964;28;20327;-61
2023/04/07 07:57:54;;;;;;;8.13;6.63;;;;;;;;;;5022492;28;20221;-61
2023/04/07 08:00:22;;;;;;;7.40;6.63;;;;;;;;;;5028521;28;20204;-61
2023/04/07 08:02:50;;;;;;;8.47;6.30;;;;;;;;;;5019662;28;20251;-61
2023/04/07 08:05:17;;;;;;;7.27;6.40;;;;;;;;;;5013414;28;20295;-61
2023/04/07 08:07:45;;;;;;;9.23;6.57;;;;;;;;;;5013175;28;20219;-61
2023/04/07 08:10:12;;;;;;;9.40;7.00;;;;;;;;;;5022359;28;20209;-61
2023/04/07 08:12:40;;;;;;;7.77;6.87;;;;;;;;;;5017833;28;20277;-61
2023/04/07 08:15:08;;;;;;;7.67;6.80;;;;;;;;;;5024575;28;20291;-61
2023/04/07 08:17:35;;;;;;;8.33;7.03;;;;;;;;;;5022244;28;20298;-61
2023/04/07 08:20:03;;;;;;;11.90;7.00;;;;;;;;;;5023344;28;20204;-61
2023/04/07 08:22:30;;;;;;;9.33;6.53;;;;;;;;;;5021578;28;20223;-61
2023/04/07 08:24:58;;;;;;;9.07;6.90;;;;;;;;;;5021418;28;20204;-61
2023/04/07 08:27:25;;;;;;;7.30;6.60;;;;;;;;;;5023046;28;20242;-61
2023/04/07 08:29:59;;;;;;;8.80;6.83;;;;;;;;;;5022904;28;20212;-61
2023/04/07 08:32:26;;;;;;;9.33;6.77;;;;;;;;;;5024742;28;20211;-61
2023/04/07 08:34:56;;;;;;;7.37;6.27;;;;;;;;;;5021686;28;20197;-61
2023/04/07 08:37:23;;;;;;;8.27;6.50;;;;;;;;;;5013207;28;20201;-61
2023/04/07 08:39:50;;;;;;;8.27;6.67;;;;;;;;;;5012913;28;20213;-61
2023/04/07 08:42:20;;;;;;;8.57;7.00;;;;;;;;;;5022271;28;20235;-61
2023/04/07 08:44:48;;;;;;;9.53;6.93;;;;;;;;;;5021977;28;20192;-61
2023/04/07 08:47:18;;;;;;;7.27;6.57;;;;;;;;;;5021826;28;20204;-61
2023/04/07 08:49:45;;;;;;;7.60;6.80;;;;;;;;;;5019093;28;20201;-61
2023/04/07 08:52:16;;;;;;;7.77;6.80;;;;;;;;;;5023842;28;20196;-61
2023/04/07 08:54:43;;;;;;;7.53;6.83;;;;;;;;;;5025668;28;20204;-61
2023/04/07 08:57:11;;;;;;;8.57;6.90;;;;;;;;;;5023881;28;20283;-61
2023/04/07 08:59:42;;;;;;;8.67;6.90;;;;;;;;;;5021386;28;20208;-61
2023/04/07 09:02:09;;;;;;;7.40;6.70;;;;;;;;;;5022419;28;20323;-61
2023/04/07 09:04:36;;;;;;;8.80;6.77;;;;;;;;;;5023617;28;20218;-61
2023/04/07 09:07:03;;;;;;;7.97;6.87;;;;;;;;;;5017898;28;20208;-61
2023/04/07 09:09:30;;;;;;;8.23;6.70;;;;;;;;;;5022232;28;20248;-61
2023/04/07 09:11:58;;;;;;;9.67;7.07;;;;;;;;;;5017326;28;20208;-61
2023/04/07 09:14:25;;;;;;;9.73;6.50;;;;;;;;;;5020220;28;20215;-61
2023/04/07 09:16:55;;;;;;;7.43;6.30;;;;;;;;;;5020365;28;20204;-61
2023/04/07 09:19:22;;;;;;;8.20;6.27;;;;;;;;;;5018225;28;20236;-61
2023/04/07 09:21:50;;;;;;;9.33;6.63;;;;;;;;;;5018383;28;20223;-61
2023/04/07 09:24:23;;;;;;;7.73;6.50;;;;;;;;;;5022667;28;20216;-61
2023/04/07 09:26:51;;;;;;;7.10;6.30;;;;;;;;;;5021888;28;20218;-61
2023/04/07 09:29:21;;;;;;;6.30;5.57;;;;;;;;;;5023035;28;20241;-61
2023/04/07 09:31:50;;;;;;;7.07;5.93;;;;;;;;;;5021145;28;20215;-61
2023/04/07 09:34:29;;;;;;;7.23;6.30;;;;;;;;;;5021234;28;20219;-61
2023/04/07 09:36:56;;;;;;;7.17;6.47;;;;;;;;;;5015848;28;20203;-61
2023/04/07 09:39:23;;;;;;;7.77;6.23;;;;;;;;;;5019892;28;20254;-61
2023/04/07 09:41:51;;;;;;;7.00;6.30;;;;;;;;;;5020608;28;20212;-61
2023/04/07 09:44:18;;;;;;;7.20;6.17;;;;;;;;;;5016194;28;20240;-61
2023/04/07 09:46:49;;;;;;;8.37;6.63;;;;;;;;;;5016764;28;20219;-61
2023/04/07 09:49:19;;;;;;;7.97;6.40;;;;;;;;;;5016915;28;20267;-61
2023/04/07 09:51:54;;;;;;;7.10;5.80;;;;;;;;;;5020045;28;20313;-61
2023/04/07 09:54:34;;;;;;;8.57;5.83;;;;;;;;;;5013165;28;20226;-61
2023/04/07 09:57:02;;;;;;;7.63;6.20;;;;;;;;;;5019401;28;20223;-61
2023/04/07 09:59:29;;;;;;;7.67;6.07;;;;;;;;;;5024313;28;20283;-62
2023/04/07 10:01:57;;;;;;;6.83;5.23;;;;;;;;;;5025333;28;20216;-61
2023/04/07 10:04:24;;;;;;;8.07;6.53;;;;;;;;;;5019056;28;20204;-61
2023/04/07 10:06:54;;;;;;;7.10;6.37;;;;;;;;;;5017388;28;20294;-61
2023/04/07 10:09:21;;;;;;;7.53;6.80;;;;;;;;;;5019301;28;20211;-61
2023/04/07 10:11:49;;;;;;;8.50;7.10;;;;;;;;;;5023547;28;20266;-61
2023/04/07 10:14:17;;;;;;;9.10;7.47;;;;;;;;;;5018827;28;20207;-62
2023/04/07 10:16:44;;;;;;;9.20;8.03;;;;;;;;;;5017605;28;20204;-62
2023/04/07 10:19:12;;;;;;;9.13;7.60;;;;;;;;;;5018649;28;20207;-61
2023/04/07 10:21:41;;;;;;;9.13;7.87;;;;;;;;;;5022813;28;20255;-61
2023/04/07 10:24:18;;;;;;;8.20;7.30;;;;;;;;;;5023748;28;20246;-61
2023/04/07 10:26:47;;;;;;;10.20;7.47;;;;;;;;;;5025373;28;20251;-61
2023/04/07 10:29:16;;;;;;;7.77;6.97;;;;;;;;;;5022975;28;20235;-61
2023/04/07 10:31:44;;;;;;;8.20;6.97;;;;;;;;;;5026080;28;20211;-61
2023/04/07 10:34:11;;;;;;;8.27;7.47;;;;;;;;;;5025595;28;20201;-61
2023/04/07 10:36:58;;;;;;;8.17;7.37;;;;;;;;;;5023608;28;20213;-61
2023/04/07 10:39:27;;;;;;;8.40;7.47;;;;;;;;;;5025432;28;20212;-61
2023/04/07 10:41:54;;;;;;;8.73;7.53;;;;;;;;;;5020396;28;20213;-61
2023/04/07 10:44:45;;;;;;;8.20;7.20;;;;;;;;;;5022742;28;20240;-61
2023/04/07 10:47:14;;;;;;;9.70;7.53;;;;;;;;;;5002718;28;20220;-61
2023/04/07 10:50:01;;;;;;;8.10;7.17;;;;;;;;;;5024939;28;20307;-61
2023/04/07 10:52:28;;;;;;;9.07;7.33;;;;;;;;;;5019041;28;20274;-69
2023/04/07 10:55:13;;;;;;;8.90;7.57;;;;;;;;;;5021970;28;20219;-69
2023/04/07 10:58:02;;;;;;;9.20;7.10;;;;;;;;;;5020430;28;20208;-68
2023/04/07 11:00:29;;;;;;;6.20;5.53;;;;;;;;;;5021176;28;20204;-69
2023/04/07 11:02:56;;;;;;;7.90;6.33;;;;;;;;;;5019013;28;20231;-69
2023/04/07 11:05:24;;;;;;;6.00;5.40;;;;;;;;;;5017816;28;20204;-69
2023/04/07 11:07:53;;;;;;;5.93;5.33;;;;;;;;;;5018977;28;20200;-68
2023/04/07 11:10:21;;;;;;;6.13;5.43;;;;;;;;;;5016089;28;20208;-69
2023/04/07 11:13:07;;;;;;;7.43;5.53;;;;;;;;;;5019338;28;20215;-69
2023/04/07 11:15:34;;;;;;;7.23;5.43;;;;;;;;;;5023177;28;20208;-69
2023/04/07 11:18:11;;;;;;;8.17;5.10;;;;;;;;;;5024135;28;20201;-69
2023/04/07 11:20:42;;;;;;;6.97;5.13;;;;;;;;;;5018867;28;20207;-69
2023/04/07 11:23:09;;;;;;;5.68;3.90;;;;;;;;;;5014345;28;20235;-70
2023/04/07 11:25:36;;;;;;;5.13;4.22;;;;;;;;;;5025973;28;20208;-69
2023/04/07 11:28:05;;;;;;;5.27;4.50;;;;;;;;;;5019571;28;20240;-69
2023/04/07 11:30:33;;;;;;;5.30;4.30;;;;;;;;;;5025775;28;20223;-69
2023/04/07 11:33:00;;;;;;;4.35;3.92;;;;;;;;;;5020547;28;20213;-69
2023/04/07 11:35:27;;;;;;;4.15;3.75;;;;;;;;;;5025847;28;20195;-69
2023/04/07 11:38:02;;;;;;;4.80;3.58;;;;;;;;;;5021460;28;20223;-69
2023/04/07 11:40:33;;;;;;;3.90;3.50;;;;;;;;;;5019857;28;20204;-69
2023/04/07 11:43:01;;;;;;;5.07;3.73;;;;;;;;;;5028728;28;20318;-69
2023/04/07 11:45:29;;;;;;;3.83;3.43;;;;;;;;;;5018114;28;20205;-69
2023/04/07 11:47:56;;;;;;;4.05;3.10;;;;;;;;;;5026341;28;20212;-69
2023/04/07 11:50:40;;;;;;;3.67;2.80;;;;;;;;;;5024153;28;20208;-69
2023/04/07 11:53:07;;;;;;;2.93;2.63;;;;;;;;;;5019432;28;20239;-69
2023/04/07 11:55:34;;;;;;;4.37;2.80;;;;;;;;;;5025693;28;20211;-69
2023/04/07 11:58:08;;;;;;;4.22;3.08;;;;;;;;;;5026923;28;20221;-69
2023/04/07 12:00:37;;;;;;;3.58;3.10;;;;;;;;;;5022739;28;20263;-69
2023/04/07 12:03:12;;;;;;;4.43;3.20;;;;;;;;;;5025601;28;20275;-69
2023/04/07 12:05:43;;;;;;;3.78;3.03;;;;;;;;;;5027664;28;20210;-69
2023/04/07 12:08:11;;;;;;;2.63;2.23;;;;;;;;;;5029853;28;20212;-69
2023/04/07 12:10:40;;;;;;;3.40;2.40;;;;;;;;;;5025157;28;20289;-69
2023/04/07 12:13:08;;;;;;;3.53;2.60;;;;;;;;;;5020219;28;20193;-69
2023/04/07 12:15:36;;;;;;;3.50;2.50;;;;;;;;;;5018266;28;20200;-69
2023/04/07 12:18:03;;;;;;;2.60;2.40;;;;;;;;;;5023611;28;20208;-70
2023/04/07 12:20:31;;;;;;;2.30;2.08;;;;;;;;;;5024106;28;20197;-69
2023/04/07 12:22:59;;;;;;;3.00;2.30;;;;;;;;;;5023111;28;20228;-69
2023/04/07 12:25:26;;;;;;;4.20;3.43;;;;;;;;;;5018123;28;20213;-69
2023/04/07 12:27:53;;;;;;;4.57;3.47;;;;;;;;;;5015646;28;20294;-69
2023/04/07 12:30:20;;;;;;;3.72;3.28;;;;;;;;;;5018604;28;20250;-69
2023/04/07 12:32:49;;;;;;;3.50;3.10;;;;;;;;;;5021059;28;20207;-69
2023/04/07 12:35:16;;;;;;;4.50;3.73;;;;;;;;;;5020142;28;20196;-69
2023/04/07 12:37:43;;;;;;;4.22;3.65;;;;;;;;;;5017757;28;20267;-70
2023/04/07 12:40:10;;;;;;;3.95;2.67;;;;;;;;;;5019643;28;20207;-70
2023/04/07 12:42:38;;;;;;;7.35;2.60;;;;;;;;;;5019488;28;20200;-70
2023/04/07 12:45:06;;;;;;;2.92;2.35;;;;;;;;;;5021144;28;20192;-70
2023/04/07 12:47:33;;;;;;;2.72;2.20;;;;;;;;;;5017517;28;20219;-69
2023/04/07 12:50:02;;;;;;;2.55;2.20;;;;;;;;;;5022472;28;20219;-69
2023/04/07 12:52:29;;;;;;;2.60;2.40;;;;;;;;;;5021635;28;20205;-70
2023/04/07 12:54:57;;;;;;;3.47;2.20;;;;;;;;;;5019659;28;20211;-70
2023/04/07 12:57:24;;;;;;;3.15;2.80;;;;;;;;;;5026362;28;20213;-69
2023/04/07 12:59:52;;;;;;;3.33;2.20;;;;;;;;;;5022237;28;20211;-69
2023/04/07 13:02:19;;;;;;;2.90;2.40;;;;;;;;;;5020998;28;20220;-70
2023/04/07 13:04:47;;;;;;;4.50;2.90;;;;;;;;;;5016951;28;20224;-70
2023/04/07 13:07:15;;;;;;;3.53;2.60;;;;;;;;;;5023306;28;20302;-69
2023/04/07 13:09:43;;;;;;;4.18;2.50;;;;;;;;;;5020324;28;20263;-69
2023/04/07 13:12:11;;;;;;;2.80;2.40;;;;;;;;;;5014948;28;20216;-69
2023/04/07 13:14:38;;;;;;;3.78;2.50;;;;;;;;;;5017930;28;20196;-69
2023/04/07 13:17:05;;;;;;;2.45;2.20;;;;;;;;;;5020479;28;20204;-69
2023/04/07 13:19:32;;;;;;;4.03;2.30;;;;;;;;;;5022286;28;20215;-69
2023/04/07 13:21:59;;;;;;;4.95;2.40;;;;;;;;;;5023571;28;20219;-70
2023/04/07 13:24:28;;;;;;;2.13;1.92;;;;;;;;;;5024661;28;20219;-70
2023/04/07 13:26:56;;;;;;;3.03;2.10;;;;;;;;;;5021412;28;20208;-69
2023/04/07 13:29:23;;;;;;;2.40;2.10;;;;;;;;;;5020498;28;20236;-70
2023/04/07 13:31:50;;;;;;;2.92;2.05;;;;;;;;;;5018472;28;20207;-69
2023/04/07 13:34:17;;;;;;;2.78;2.30;;;;;;;;;;5018103;28;20197;-69
2023/04/07 13:36:45;;;;;;;2.90;2.30;;;;;;;;;;5020527;28;20205;-70
2023/04/07 13:39:12;;;;;;;2.40;2.00;;;;;;;;;;5016682;28;20216;-70
2023/04/07 13:41:40;;;;;;;3.13;1.92;;;;;;;;;;5021335;28;20213;-69
2023/04/07 13:44:07;;;;;;;2.40;2.00;;;;;;;;;;5019056;28;20223;-70
2023/04/07 13:46:35;;;;;;;3.08;2.20;;;;;;;;;;5019520;28;20293;-70
2023/04/07 13:49:02;;;;;;;3.13;2.70;;;;;;;;;;5018235;28;20201;-67
2023/04/07 13:51:29;;;;;;;4.00;2.70;;;;;;;;;;5018624;28;20196;-67
2023/04/07 13:53:56;;;;;;;2.97;2.65;;;;;;;;;;5018830;28;20209;-69
2023/04/07 13:56:23;;;;;;;3.53;2.63;;;;;;;;;;5025088;28;20207;-70
2023/04/07 13:58:52;;;;;;;5.05;3.30;;;;;;;;;;5018025;28;20203;-71
2023/04/07 14:01:20;;;;;;;3.35;3.00;;;;;;;;;;5018804;28;20287;-70
2023/04/07 14:03:48;;;;;;;5.15;3.50;;;;;;;;;;5017281;28;20224;-70
2023/04/07 14:06:15;;;;;;;5.78;3.38;;;;;;;;;;5021758;28;20200;-69
2023/04/07 14:08:42;;;;;;;5.00;3.45;;;;;;;;;;5022483;28;20208;-70
2023/04/07 14:11:09;;;;;;;4.10;3.70;;;;;;;;;;5020129;28;20212;-69
2023/04/07 14:13:37;;;;;;;5.20;3.80;;;;;;;;;;5019082;28;20200;-70
2023/04/07 14:16:06;;;;;;;3.92;3.53;;;;;;;;;;5021087;28;20200;-69
2023/04/07 14:18:33;;;;;;;4.85;3.83;;;;;;;;;;5026295;28;20211;-70
2023/04/07 14:21:02;;;;;;;5.93;3.55;;;;;;;;;;5015732;28;20204;-69
2023/04/07 14:23:30;;;;;;;5.70;4.30;;;;;;;;;;5019684;28;20208;-69
2023/04/07 14:25:58;;;;;;;5.43;3.88;;;;;;;;;;5019748;28;20216;-69
2023/04/07 14:28:25;;;;;;;4.10;3.72;;;;;;;;;;5024770;28;20236;-69
2023/04/07 14:30:53;;;;;;;5.25;4.03;;;;;;;;;;5020898;28;20219;-69
2023/04/07 14:33:21;;;;;;;4.75;3.70;;;;;;;;;;5017959;28;20207;-69
2023/04/07 14:35:49;;;;;;;4.22;3.40;;;;;;;;;;5020793;28;20204;-70
2023/04/07 14:38:16;;;;;;;3.72;3.42;;;;;;;;;;5016040;28;20212;-69